createdAt,value
2023-03-06T00:00:48.020Z,3.97
2023-03-06T00:03:17.208Z,3.92
2023-03-06T00:05:45.716Z,3.91
2023-03-06T00:08:15.625Z,3.89
2023-03-06T00:10:44.621Z,3.85
2023-03-06T00:13:15.349Z,3.87
2023-03-06T00:15:43.820Z,3.88
2023-03-06T00:18:12.732Z,3.86
2023-03-06T00:20:42.768Z,3.77
2023-03-06T00:23:12.446Z,3.67
2023-03-06T00:25:45.200Z,3.53
2023-03-06T00:28:15.062Z,3.43
2023-03-06T00:30:44.485Z,3.36
2023-03-06T00:33:13.185Z,3.12
2023-03-06T00:35:42.448Z,3.20
2023-03-06T00:38:13.153Z,3.20
2023-03-06T00:40:41.735Z,3.19
2023-03-06T00:43:11.603Z,3.16
2023-03-06T00:45:40.122Z,3.00
2023-03-06T00:48:10.192Z,2.97
2023-03-06T00:50:39.728Z,2.95
2023-03-06T00:53:08.138Z,2.89
2023-03-06T00:55:36.625Z,2.76
2023-03-06T00:58:05.004Z,2.61
2023-03-06T01:00:34.852Z,2.66
2023-03-06T01:03:03.452Z,2.67
2023-03-06T01:05:33.092Z,2.68
2023-03-06T01:08:01.532Z,2.66
2023-03-06T01:10:30.203Z,2.61
2023-03-06T01:12:58.643Z,2.55
2023-03-06T01:15:28.319Z,2.52
2023-03-06T01:17:58.267Z,2.52
2023-03-06T01:20:26.864Z,2.50
2023-03-06T01:22:56.803Z,2.54
2023-03-06T01:25:25.241Z,2.55
2023-03-06T01:27:54.344Z,2.55
2023-03-06T01:30:22.802Z,2.53
2023-03-06T01:32:51.133Z,2.51
2023-03-06T01:35:21.173Z,2.49
2023-03-06T01:37:49.617Z,2.42
2023-03-06T01:40:18.840Z,2.29
2023-03-06T01:42:50.739Z,2.10
2023-03-06T01:46:07.387Z,1.91
2023-03-06T01:48:36.043Z,1.81
2023-03-06T01:51:06.236Z,1.90
2023-03-06T01:53:34.830Z,1.87
2023-03-06T01:56:03.260Z,1.91
2023-03-06T01:58:31.988Z,1.92
2023-03-06T02:01:00.644Z,1.95
2023-03-06T02:03:31.283Z,1.95
2023-03-06T02:06:00.704Z,1.89
2023-03-06T02:08:31.360Z,1.92
2023-03-06T02:11:07.319Z,1.95
2023-03-06T02:13:35.939Z,1.97
2023-03-06T02:16:04.504Z,2.06
2023-03-06T02:18:34.465Z,2.03
2023-03-06T02:21:05.398Z,2.01
2023-03-06T02:23:43.682Z,1.96
2023-03-06T02:26:15.010Z,1.89
2023-03-06T02:28:43.803Z,1.86
2023-03-06T02:31:23.572Z,1.81
2023-03-06T02:34:07.966Z,0.64
2023-03-06T02:36:42.085Z,1.55
2023-03-06T02:39:10.716Z,1.41
2023-03-06T02:41:41.694Z,1.35
2023-03-06T02:44:10.279Z,1.26
2023-03-06T02:46:38.630Z,1.17
2023-03-06T02:49:07.136Z,1.09
2023-03-06T02:51:35.618Z,1.04
2023-03-06T02:54:04.104Z,0.99
2023-03-06T02:56:32.580Z,1.03
2023-03-06T02:59:02.399Z,1.07
2023-03-06T03:01:30.913Z,1.01
2023-03-06T03:03:59.392Z,1.00
2023-03-06T03:06:28.667Z,1.03
2023-03-06T03:08:57.223Z,0.97
2023-03-06T03:11:25.673Z,0.87
2023-03-06T03:13:54.070Z,0.77
2023-03-06T03:16:26.844Z,0.42
2023-03-06T03:18:59.054Z,0.63
2023-03-06T03:21:28.296Z,0.60
2023-03-06T03:23:57.239Z,0.57
2023-03-06T03:26:28.950Z,0.54
2023-03-06T03:29:09.855Z,0.53
2023-03-06T03:31:39.815Z,0.47
2023-03-06T03:34:08.466Z,0.55
2023-03-06T03:36:40.183Z,0.62
2023-03-06T03:39:10.516Z,0.67
2023-03-06T03:41:39.463Z,0.70
2023-03-06T03:44:09.973Z,0.57
2023-03-06T03:46:40.458Z,0.59
2023-03-06T03:49:13.939Z,0.61
2023-03-06T03:51:42.325Z,0.60
2023-03-06T03:54:11.244Z,0.54
2023-03-06T03:56:45.221Z,0.45
2023-03-06T03:59:25.437Z,0.33
2023-03-06T04:02:18.725Z,0.20
2023-03-06T04:04:55.466Z,0.16
2023-03-06T04:07:23.987Z,0.15
2023-03-06T04:09:52.398Z,0.13
2023-03-06T04:12:20.946Z,0.22
2023-03-06T04:14:49.470Z,0.30
2023-03-06T04:17:20.238Z,0.31
2023-03-06T04:19:49.672Z,0.23
2023-03-06T04:22:18.817Z,0.05
2023-03-06T04:24:48.989Z,0.12
2023-03-06T04:27:18.841Z,0.14
2023-03-06T04:29:47.808Z,0.20
2023-03-06T04:32:16.745Z,0.15
2023-03-06T04:34:47.025Z,0.06
2023-03-06T04:37:20.765Z,-0.04
2023-03-06T04:39:49.569Z,-0.03
2023-03-06T04:42:17.990Z,-0.02
2023-03-06T04:44:46.997Z,-0.01
2023-03-06T04:47:16.542Z,0.01
2023-03-06T04:49:48.499Z,-0.07
2023-03-06T04:52:16.894Z,-0.06
2023-03-06T04:54:46.294Z,-0.04
2023-03-06T04:57:15.277Z,-0.05
2023-03-06T04:59:43.759Z,-0.07
2023-03-06T05:02:12.227Z,-0.09
2023-03-06T05:04:40.657Z,-0.09
2023-03-06T05:07:10.471Z,-0.09
2023-03-06T05:09:39.223Z,-0.08
2023-03-06T05:12:08.173Z,-0.06
2023-03-06T05:14:36.705Z,-0.04
2023-03-06T05:17:05.101Z,-0.05
2023-03-06T05:19:33.461Z,-0.05
2023-03-06T05:22:01.917Z,-0.05
2023-03-06T05:24:31.749Z,-0.16
2023-03-06T05:27:01.179Z,-0.21
2023-03-06T05:29:29.721Z,-0.24
2023-03-06T05:31:59.042Z,-0.30
2023-03-06T05:34:27.512Z,-0.33
2023-03-06T05:36:55.939Z,-0.27
2023-03-06T05:39:24.436Z,-0.29
2023-03-06T05:41:54.224Z,-0.35
2023-03-06T05:44:24.048Z,-0.36
2023-03-06T05:46:52.589Z,-0.32
2023-03-06T05:49:20.936Z,-0.29
2023-03-06T05:51:49.361Z,-0.29
2023-03-06T05:54:17.854Z,-0.25
2023-03-06T05:56:46.228Z,-0.23
2023-03-06T05:59:15.986Z,-0.20
2023-03-06T06:01:45.415Z,-0.27
2023-03-06T06:04:13.815Z,-0.33
2023-03-06T06:06:42.212Z,-0.27
2023-03-06T06:09:13.490Z,-0.25
2023-03-06T06:11:42.296Z,-0.32
2023-03-06T06:14:10.581Z,-0.40
2023-03-06T06:16:40.378Z,-0.47
2023-03-06T06:19:09.751Z,-0.50
2023-03-06T06:21:38.243Z,-0.53
2023-03-06T06:24:07.368Z,-0.53
2023-03-06T06:26:36.011Z,-0.47
2023-03-06T06:29:05.796Z,-0.43
2023-03-06T06:31:34.211Z,-0.44
2023-03-06T06:34:04.213Z,-0.44
2023-03-06T06:36:32.776Z,-0.45
2023-03-06T06:39:01.263Z,-0.36
2023-03-06T06:41:50.706Z,-0.28
2023-03-06T06:44:19.800Z,-0.23
2023-03-06T06:47:21.160Z,-0.10
2023-03-06T06:49:40.593Z,-0.09
2023-03-06T06:52:09.523Z,-0.02
2023-03-06T06:54:37.982Z,0.11
2023-03-06T06:57:06.586Z,0.12
2023-03-06T06:59:35.118Z,0.11
2023-03-06T07:02:03.582Z,0.10
2023-03-06T07:04:32.039Z,0.25
2023-03-06T07:07:02.485Z,0.34
2023-03-06T07:09:31.562Z,0.52
2023-03-06T07:12:00.010Z,0.63
2023-03-06T07:14:28.609Z,0.86
2023-03-06T07:16:57.041Z,1.07
2023-03-06T07:19:25.437Z,1.22
2023-03-06T07:21:53.933Z,1.30
2023-03-06T07:24:23.791Z,1.47
2023-03-06T07:26:52.453Z,1.57
2023-03-06T07:29:21.048Z,1.73
2023-03-06T07:31:49.456Z,1.87
2023-03-06T07:34:17.896Z,2.01
2023-03-06T07:36:46.337Z,2.21
2023-03-06T07:39:14.760Z,2.36
2023-03-06T07:41:44.498Z,2.59
2023-03-06T07:44:12.934Z,2.73
2023-03-06T07:46:41.454Z,2.92
2023-03-06T07:49:09.961Z,3.18
2023-03-06T07:51:38.376Z,3.51
2023-03-06T07:54:06.929Z,3.93
2023-03-06T07:56:35.679Z,4.42
2023-03-06T07:59:05.542Z,4.95
2023-03-06T08:01:34.343Z,5.34
2023-03-06T08:04:02.927Z,5.81
2023-03-06T08:06:31.402Z,6.25
2023-03-06T08:09:00.644Z,6.55
2023-03-06T08:11:31.522Z,7.10
2023-03-06T08:14:00.687Z,7.23
2023-03-06T08:16:32.068Z,7.60
2023-03-06T08:19:00.517Z,7.68
2023-03-06T08:21:29.740Z,7.82
2023-03-06T08:23:58.229Z,7.93
2023-03-06T08:26:28.452Z,8.04
2023-03-06T08:28:58.759Z,7.87
2023-03-06T08:31:30.115Z,7.82
2023-03-06T08:34:03.420Z,7.85
2023-03-06T08:36:32.054Z,7.89
2023-03-06T08:39:02.004Z,7.86
2023-03-06T08:41:30.697Z,7.93
2023-03-06T08:44:00.375Z,7.93
2023-03-06T08:46:30.841Z,7.91
2023-03-06T08:49:00.678Z,7.89
2023-03-06T08:51:29.363Z,7.98
2023-03-06T08:53:58.897Z,8.05
2023-03-06T08:56:28.954Z,8.10
2023-03-06T08:58:58.620Z,8.14
2023-03-06T09:01:28.793Z,8.12
2023-03-06T09:03:59.046Z,8.19
2023-03-06T09:06:31.845Z,8.34
2023-03-06T09:09:00.851Z,8.47
2023-03-06T09:11:29.470Z,8.50
2023-03-06T09:13:58.233Z,8.59
2023-03-06T09:16:27.012Z,8.67
2023-03-06T09:18:55.724Z,8.75
2023-03-06T09:21:25.120Z,8.85
2023-03-06T09:23:54.914Z,8.87
2023-03-06T09:26:32.837Z,8.92
2023-03-06T09:29:08.701Z,9.02
2023-03-06T09:31:37.020Z,9.13
2023-03-06T09:34:05.536Z,9.14
2023-03-06T09:36:45.672Z,9.13
2023-03-06T09:39:24.128Z,9.17
2023-03-06T09:41:53.539Z,9.28
2023-03-06T09:44:26.128Z,9.38
2023-03-06T09:47:21.573Z,9.43
2023-03-06T09:50:12.410Z,9.45
2023-03-06T09:52:52.728Z,9.51
2023-03-06T09:55:27.270Z,9.44
2023-03-06T09:58:02.660Z,9.75
2023-03-06T10:00:36.152Z,9.85
2023-03-06T10:03:17.334Z,9.82
2023-03-06T10:05:50.231Z,9.94
2023-03-06T10:08:28.289Z,10.01
2023-03-06T10:11:03.705Z,10.04
2023-03-06T10:13:40.093Z,10.04
2023-03-06T10:16:18.415Z,8.26
2023-03-06T10:18:47.532Z,10.29
2023-03-06T10:21:31.492Z,10.05
2023-03-06T10:24:11.034Z,10.47
2023-03-06T10:26:46.897Z,10.53
2023-03-06T10:29:43.585Z,10.63
2023-03-06T10:32:18.348Z,10.68
2023-03-06T10:34:47.928Z,10.80
2023-03-06T10:37:21.484Z,10.75
2023-03-06T10:39:56.361Z,10.99
2023-03-06T10:42:29.329Z,11.08
2023-03-06T10:45:10.376Z,10.97
2023-03-06T10:47:40.433Z,11.25
2023-03-06T10:50:24.550Z,11.52
2023-03-06T10:53:05.145Z,11.61
2023-03-06T10:55:35.664Z,11.71
2023-03-06T10:58:23.444Z,12.16
2023-03-06T11:01:04.116Z,12.31
2023-03-06T11:03:32.592Z,12.47
2023-03-06T11:06:08.654Z,12.56
2023-03-06T11:08:38.738Z,12.64
2023-03-06T11:11:09.674Z,12.66
2023-03-06T11:13:41.451Z,12.98
2023-03-06T11:16:20.356Z,13.23
2023-03-06T11:19:00.004Z,13.41
2023-03-06T11:21:31.749Z,13.62
2023-03-06T11:24:05.377Z,13.71
2023-03-06T11:26:42.446Z,13.97
2023-03-06T11:29:28.487Z,14.07
2023-03-06T11:32:05.601Z,14.21
2023-03-06T11:34:43.902Z,14.26
2023-03-06T11:37:17.827Z,14.32
2023-03-06T11:39:51.336Z,14.39
2023-03-06T11:42:23.747Z,13.71
2023-03-06T11:45:05.506Z,14.31
2023-03-06T11:47:37.550Z,14.37
2023-03-06T11:50:18.771Z,14.26
2023-03-06T11:52:52.408Z,14.37
2023-03-06T11:55:31.686Z,14.37
2023-03-06T11:58:20.222Z,14.41
2023-03-06T12:00:59.180Z,14.42
2023-03-06T12:04:00.688Z,14.44
2023-03-06T12:06:39.232Z,14.54
2023-03-06T12:09:25.301Z,14.68
2023-03-06T12:12:05.859Z,14.84
2023-03-06T12:14:49.325Z,14.88
2023-03-06T12:17:26.579Z,14.89
2023-03-06T12:20:11.419Z,14.97
2023-03-06T12:22:58.077Z,15.09
2023-03-06T12:25:36.514Z,15.22
2023-03-06T12:28:22.979Z,15.30
2023-03-06T12:31:10.283Z,15.20
2023-03-06T12:33:50.453Z,15.23
2023-03-06T12:36:30.854Z,15.32
2023-03-06T12:39:10.873Z,15.38
2023-03-06T12:41:47.933Z,15.28
2023-03-06T12:44:51.713Z,15.46
2023-03-06T12:47:23.072Z,15.56
2023-03-06T12:49:57.520Z,15.70
2023-03-06T12:52:30.549Z,15.80
2023-03-06T12:55:23.151Z,15.92
2023-03-06T12:57:52.906Z,16.01
2023-03-06T13:01:04.210Z,16.12
2023-03-06T13:03:45.168Z,16.16
2023-03-06T13:06:50.617Z,16.17
2023-03-06T13:09:21.667Z,16.11
2023-03-06T13:12:14.651Z,16.17
2023-03-06T13:14:56.144Z,16.22
2023-03-06T13:17:45.167Z,16.26
2023-03-06T13:20:35.541Z,16.23
2023-03-06T13:23:41.110Z,16.21
2023-03-06T13:26:33.459Z,16.17
2023-03-06T13:29:01.844Z,16.12
2023-03-06T13:31:51.110Z,16.06
2023-03-06T13:34:36.182Z,15.96
2023-03-06T13:37:39.492Z,15.98
2023-03-06T13:40:36.117Z,15.97
2023-03-06T13:43:27.865Z,15.98
2023-03-06T13:45:56.490Z,15.96
2023-03-06T13:48:47.673Z,16.07
2023-03-06T13:51:24.931Z,15.94
2023-03-06T13:54:30.307Z,16.10
2023-03-06T13:57:18.034Z,16.14
2023-03-06T14:00:16.961Z,16.20
2023-03-06T14:03:24.131Z,16.20
2023-03-06T14:05:53.376Z,16.18
2023-03-06T14:08:24.300Z,16.20
2023-03-06T14:11:02.109Z,16.20
2023-03-06T14:13:46.602Z,16.17
2023-03-06T14:16:23.172Z,16.01
2023-03-06T14:18:53.747Z,16.15
2023-03-06T14:21:31.068Z,16.19
2023-03-06T14:24:00.935Z,16.18
2023-03-06T14:26:33.978Z,16.19
2023-03-06T14:29:04.492Z,16.19
2023-03-06T14:31:37.361Z,16.12
2023-03-06T14:34:07.398Z,16.08
2023-03-06T14:36:37.627Z,16.06
2023-03-06T14:39:14.363Z,16.05
2023-03-06T14:41:43.119Z,16.02
2023-03-06T14:44:22.462Z,16.00
2023-03-06T14:46:55.190Z,15.97
2023-03-06T14:49:25.845Z,15.64
2023-03-06T14:51:56.575Z,15.94
2023-03-06T14:54:29.614Z,15.90
2023-03-06T14:57:03.976Z,15.87
2023-03-06T14:59:36.307Z,15.64
2023-03-06T15:02:08.967Z,15.78
2023-03-06T15:04:42.039Z,15.75
2023-03-06T15:07:14.256Z,15.74
2023-03-06T15:09:45.972Z,15.71
2023-03-06T15:12:37.114Z,15.65
2023-03-06T15:15:32.732Z,15.61
2023-03-06T15:18:03.697Z,15.55
2023-03-06T15:20:44.120Z,15.51
2023-03-06T15:23:19.210Z,15.49
2023-03-06T15:25:55.886Z,15.43
2023-03-06T15:28:34.742Z,15.39
2023-03-06T15:31:19.541Z,15.18
2023-03-06T15:34:15.204Z,15.12
2023-03-06T15:36:45.165Z,15.30
2023-03-06T15:39:33.222Z,15.30
2023-03-06T15:42:04.444Z,15.20
2023-03-06T15:44:34.185Z,15.18
2023-03-06T15:47:08.821Z,15.20
2023-03-06T15:49:40.906Z,15.20
2023-03-06T15:52:09.723Z,15.14
2023-03-06T15:54:38.210Z,14.99
2023-03-06T15:57:09.363Z,14.95
2023-03-06T15:59:44.455Z,14.89
2023-03-06T16:02:17.363Z,14.00
2023-03-06T16:04:48.613Z,14.65
2023-03-06T16:07:17.379Z,14.60
2023-03-06T16:09:46.122Z,14.55
2023-03-06T16:12:17.977Z,14.46
2023-03-06T16:14:47.689Z,14.44
2023-03-06T16:17:16.906Z,14.45
2023-03-06T16:19:47.208Z,14.45
2023-03-06T16:22:15.763Z,14.31
2023-03-06T16:24:44.203Z,14.36
2023-03-06T16:27:19.280Z,14.32
2023-03-06T16:29:48.308Z,14.32
2023-03-06T16:32:16.623Z,14.23
2023-03-06T16:34:46.886Z,14.12
2023-03-06T16:37:15.573Z,14.02
2023-03-06T16:39:43.920Z,13.94
2023-03-06T16:42:12.584Z,13.83
2023-03-06T16:44:40.948Z,13.75
2023-03-06T16:47:12.902Z,13.59
2023-03-06T16:49:41.580Z,13.62
2023-03-06T16:52:12.472Z,13.59
2023-03-06T16:54:41.425Z,13.52
2023-03-06T16:57:14.903Z,13.47
2023-03-06T16:59:43.371Z,13.32
2023-03-06T17:02:12.629Z,13.26
2023-03-06T17:04:41.202Z,13.18
2023-03-06T17:07:13.140Z,13.10
2023-03-06T17:09:41.545Z,13.01
2023-03-06T17:12:11.055Z,12.98
2023-03-06T17:14:39.943Z,12.88
2023-03-06T17:17:08.783Z,12.77
2023-03-06T17:19:37.227Z,12.67
2023-03-06T17:22:05.737Z,12.60
2023-03-06T17:24:36.965Z,12.51
2023-03-06T17:27:06.488Z,12.36
2023-03-06T17:29:34.977Z,12.26
2023-03-06T17:32:03.605Z,12.21
2023-03-06T17:34:32.029Z,12.12
2023-03-06T17:37:01.441Z,12.05
2023-03-06T17:39:33.756Z,11.96
2023-03-06T17:42:03.982Z,11.87
2023-03-06T17:44:32.720Z,11.79
2023-03-06T17:47:04.796Z,11.74
2023-03-06T17:49:33.506Z,11.64
2023-03-06T17:52:03.737Z,11.57
2023-03-06T17:54:33.322Z,11.50
2023-03-06T17:57:05.452Z,11.47
2023-03-06T17:59:35.520Z,11.36
2023-03-06T18:02:03.931Z,11.30
2023-03-06T18:04:32.349Z,11.19
2023-03-06T18:07:00.743Z,11.11
2023-03-06T18:09:29.473Z,10.95
2023-03-06T18:11:58.016Z,10.82
2023-03-06T18:14:27.927Z,10.75
2023-03-06T18:16:56.598Z,10.65
2023-03-06T18:19:25.069Z,10.61
2023-03-06T18:21:53.400Z,10.57
2023-03-06T18:24:21.858Z,10.47
2023-03-06T18:26:50.434Z,10.34
2023-03-06T18:29:18.867Z,9.96
2023-03-06T18:31:50.437Z,10.16
2023-03-06T18:34:19.128Z,10.33
2023-03-06T18:36:50.856Z,10.16
2023-03-06T18:39:21.510Z,9.87
2023-03-06T18:41:49.948Z,9.93
2023-03-06T18:44:19.076Z,9.93
2023-03-06T18:46:48.921Z,9.89
2023-03-06T18:49:17.604Z,9.81
2023-03-06T18:51:48.203Z,9.80
2023-03-06T18:54:16.704Z,9.68
2023-03-06T18:56:45.276Z,9.72
2023-03-06T18:59:18.303Z,9.67
2023-03-06T19:01:49.383Z,9.51
2023-03-06T19:04:17.812Z,9.63
2023-03-06T19:06:47.623Z,9.59
2023-03-06T19:09:16.272Z,9.52
2023-03-06T19:11:46.967Z,9.49
2023-03-06T19:14:15.542Z,9.46
2023-03-06T19:16:43.922Z,9.43
2023-03-06T19:19:14.292Z,9.36
2023-03-06T19:21:42.690Z,9.28
2023-03-06T19:24:14.151Z,9.10
2023-03-06T19:26:43.146Z,9.11
2023-03-06T19:29:11.456Z,9.00
2023-03-06T19:31:40.009Z,8.95
2023-03-06T19:34:08.526Z,8.87
2023-03-06T19:36:40.928Z,8.83
2023-03-06T19:39:09.666Z,8.78
2023-03-06T19:41:38.062Z,8.66
2023-03-06T19:44:07.556Z,8.71
2023-03-06T19:46:36.326Z,8.62
2023-03-06T19:49:11.839Z,8.60
2023-03-06T19:51:41.607Z,8.59
2023-03-06T19:54:11.972Z,8.50
2023-03-06T19:56:40.748Z,8.44
2023-03-06T19:59:09.112Z,8.34
2023-03-06T20:01:38.903Z,8.26
2023-03-06T20:04:07.423Z,8.12
2023-03-06T20:06:36.774Z,8.05
2023-03-06T20:09:09.107Z,8.02
2023-03-06T20:11:37.471Z,7.94
2023-03-06T20:14:08.102Z,8.02
2023-03-06T20:16:37.443Z,8.82
2023-03-06T20:19:07.013Z,8.26
2023-03-06T20:21:38.058Z,8.07
2023-03-06T20:24:10.001Z,7.89
2023-03-06T20:26:38.691Z,7.79
2023-03-06T20:29:07.012Z,7.70
2023-03-06T20:31:35.414Z,7.63
2023-03-06T20:34:05.092Z,7.63
2023-03-06T20:36:37.905Z,7.58
2023-03-06T20:39:10.274Z,7.29
2023-03-06T20:41:38.873Z,7.46
2023-03-06T20:44:09.084Z,7.36
2023-03-06T20:46:37.806Z,7.28
2023-03-06T20:49:06.662Z,7.22
2023-03-06T20:51:39.304Z,7.13
2023-03-06T20:54:11.152Z,7.06
2023-03-06T20:56:41.344Z,6.99
2023-03-06T20:59:11.955Z,6.94
2023-03-06T21:01:42.341Z,6.74
2023-03-06T21:04:13.785Z,6.98
2023-03-06T21:06:45.484Z,6.87
2023-03-06T21:09:16.563Z,6.78
2023-03-06T21:11:45.715Z,6.70
2023-03-06T21:14:14.510Z,6.61
2023-03-06T21:16:43.019Z,6.65
2023-03-06T21:19:11.554Z,6.37
2023-03-06T21:21:39.892Z,6.72
2023-03-06T21:24:08.579Z,6.74
2023-03-06T21:26:38.728Z,6.78
2023-03-06T21:29:07.474Z,6.80
2023-03-06T21:31:36.016Z,6.88
2023-03-06T21:34:05.587Z,6.90
2023-03-06T21:36:34.337Z,6.93
2023-03-06T21:39:06.344Z,6.99
2023-03-06T21:41:35.682Z,7.22
2023-03-06T21:44:06.836Z,6.83
2023-03-06T21:46:35.684Z,7.03
2023-03-06T21:49:06.137Z,6.97
2023-03-06T21:51:34.626Z,6.93
2023-03-06T21:54:03.967Z,6.94
2023-03-06T21:56:33.645Z,6.90
2023-03-06T21:59:02.291Z,6.86
2023-03-06T22:01:32.362Z,6.84
2023-03-06T22:04:01.306Z,6.79
2023-03-06T22:06:32.647Z,6.71
2023-03-06T22:09:01.914Z,6.73
2023-03-06T22:11:34.540Z,6.65
2023-03-06T22:14:03.176Z,6.55
2023-03-06T22:16:33.288Z,6.47
2023-03-06T22:19:01.987Z,6.33
2023-03-06T22:21:30.286Z,6.21
2023-03-06T22:24:00.201Z,6.11
2023-03-06T22:26:29.703Z,6.05
2023-03-06T22:28:58.312Z,5.95
2023-03-06T22:31:29.254Z,5.88
2023-03-06T22:34:01.939Z,5.48
2023-03-06T22:36:31.973Z,5.59
2023-03-06T22:39:02.437Z,5.25
2023-03-06T22:41:31.443Z,5.39
2023-03-06T22:44:01.733Z,5.26
2023-03-06T22:46:31.176Z,5.22
2023-03-06T22:49:02.238Z,5.17
2023-03-06T22:51:31.074Z,5.00
2023-03-06T22:53:59.536Z,5.11
2023-03-06T22:56:28.012Z,5.14
2023-03-06T22:58:57.767Z,5.20
2023-03-06T23:01:30.012Z,5.29
2023-03-06T23:04:01.293Z,5.35
2023-03-06T23:06:31.724Z,5.38
2023-03-06T23:09:02.309Z,5.28
2023-03-06T23:11:31.687Z,5.15
2023-03-06T23:14:20.266Z,5.06
2023-03-06T23:17:07.658Z,5.03
2023-03-06T23:19:56.189Z,5.05
2023-03-06T23:22:43.428Z,5.06
2023-03-06T23:25:30.964Z,5.02
2023-03-06T23:27:59.840Z,4.89
2023-03-06T23:30:28.632Z,4.75
2023-03-06T23:32:57.484Z,4.76
2023-03-06T23:35:27.774Z,4.81
2023-03-06T23:37:56.584Z,4.71
2023-03-06T23:40:25.617Z,4.67
2023-03-06T23:42:54.625Z,4.32
2023-03-06T23:45:23.494Z,4.15
2023-03-06T23:47:52.409Z,4.09
2023-03-06T23:50:21.285Z,3.90
2023-03-06T23:52:53.537Z,3.91
2023-03-06T23:55:23.422Z,3.86
2023-03-06T23:57:52.184Z,3.75
